createdAt,value
2023-12-30T00:00:20.956Z,1232.00
2023-12-30T00:01:20.951Z,1222.00
2023-12-30T00:02:20.968Z,1213.00
2023-12-30T00:03:20.939Z,1210.00
2023-12-30T00:04:20.924Z,1193.00
2023-12-30T00:05:20.886Z,1185.00
2023-12-30T00:06:20.901Z,1183.00
2023-12-30T00:07:20.932Z,1172.00
2023-12-30T00:08:20.897Z,1170.00
2023-12-30T00:09:20.936Z,1168.00
2023-12-30T00:10:21.005Z,1164.00
2023-12-30T00:11:20.977Z,1160.00
2023-12-30T00:12:21.006Z,1157.00
2023-12-30T00:13:21.047Z,1159.00
2023-12-30T00:14:21.075Z,1154.00
2023-12-30T00:15:21.081Z,1150.00
2023-12-30T00:16:21.165Z,1153.00
2023-12-30T00:17:21.154Z,1135.00
2023-12-30T00:18:21.347Z,1141.00
2023-12-30T00:19:21.416Z,1141.00
2023-12-30T00:20:21.261Z,1142.00
2023-12-30T00:21:21.289Z,1128.00
2023-12-30T00:22:21.356Z,1135.00
2023-12-30T00:23:21.363Z,1140.00
2023-12-30T00:24:21.387Z,1138.00
2023-12-30T00:25:21.473Z,1133.00
2023-12-30T00:26:21.460Z,1130.00
2023-12-30T00:27:21.475Z,1131.00
2023-12-30T00:28:21.489Z,1125.00
2023-12-30T00:29:21.564Z,1123.00
2023-12-30T00:30:21.579Z,1122.00
2023-12-30T00:31:21.620Z,1120.00
2023-12-30T00:32:21.609Z,1116.00
2023-12-30T00:33:21.660Z,1118.00
2023-12-30T00:34:21.733Z,1121.00
2023-12-30T00:35:21.707Z,1111.00
2023-12-30T00:36:21.732Z,1111.00
2023-12-30T00:37:21.934Z,1112.00
2023-12-30T00:38:24.407Z,1113.00
2023-12-30T00:39:21.818Z,1117.00
2023-12-30T00:40:26.676Z,1118.00
2023-12-30T00:41:22.783Z,1118.00
2023-12-30T00:42:21.766Z,1119.00
2023-12-30T00:43:21.840Z,1118.00
2023-12-30T00:44:23.865Z,1110.00
2023-12-30T00:45:21.746Z,1114.00
2023-12-30T00:46:21.753Z,1110.00
2023-12-30T00:47:21.734Z,1113.00
2023-12-30T00:48:21.757Z,1112.00
2023-12-30T00:49:21.752Z,1113.00
2023-12-30T00:50:21.702Z,1114.00
2023-12-30T00:51:21.689Z,1105.00
2023-12-30T00:52:22.176Z,1103.00
2023-12-30T00:53:21.712Z,1105.00
2023-12-30T00:54:22.170Z,1103.00
2023-12-30T00:55:21.802Z,1105.00
2023-12-30T00:56:21.791Z,1097.00
2023-12-30T00:57:21.841Z,1104.00
2023-12-30T00:58:21.896Z,1091.00
2023-12-30T00:59:22.276Z,1105.00
2023-12-30T01:00:21.917Z,1100.00
2023-12-30T01:01:21.981Z,1098.00
2023-12-30T01:02:21.994Z,1105.00
2023-12-30T01:03:22.202Z,1092.00
2023-12-30T01:04:22.233Z,1096.00
2023-12-30T01:05:22.140Z,1090.00
2023-12-30T01:06:22.128Z,1097.00
2023-12-30T01:07:22.215Z,1084.00
2023-12-30T01:08:22.209Z,1093.00
2023-12-30T01:09:22.661Z,1097.00
2023-12-30T01:10:22.272Z,1089.00
2023-12-30T01:11:22.325Z,1089.00
2023-12-30T01:12:22.272Z,1085.00
2023-12-30T01:13:22.294Z,1089.00
2023-12-30T01:14:22.344Z,1090.00
2023-12-30T01:15:22.251Z,1086.00
2023-12-30T01:16:22.312Z,1089.00
2023-12-30T01:17:22.317Z,1080.00
2023-12-30T01:18:22.320Z,1087.00
2023-12-30T01:19:22.298Z,1091.00
2023-12-30T01:20:22.315Z,1084.00
2023-12-30T01:21:22.184Z,1084.00
2023-12-30T01:22:22.197Z,1077.00
2023-12-30T01:23:22.162Z,1086.00
2023-12-30T01:24:22.155Z,1081.00
2023-12-30T01:25:22.159Z,1075.00
2023-12-30T01:26:22.166Z,1083.00
2023-12-30T01:27:22.190Z,1087.00
2023-12-30T01:28:22.254Z,1078.00
2023-12-30T01:29:22.268Z,1079.00
2023-12-30T01:30:22.384Z,1080.00
2023-12-30T01:31:22.461Z,1075.00
2023-12-30T01:32:22.366Z,1077.00
2023-12-30T01:33:22.475Z,1066.00
2023-12-30T01:34:22.573Z,1078.00
2023-12-30T01:35:22.469Z,1069.00
2023-12-30T01:36:22.537Z,1079.00
2023-12-30T01:37:22.562Z,1077.00
2023-12-30T01:38:22.577Z,1074.00
2023-12-30T01:39:22.624Z,1070.00
2023-12-30T01:40:22.699Z,1062.00
2023-12-30T01:41:22.675Z,1075.00
2023-12-30T01:42:22.702Z,1076.00
2023-12-30T01:43:22.738Z,1073.00
2023-12-30T01:44:22.780Z,1078.00
2023-12-30T01:45:22.794Z,1066.00
2023-12-30T01:46:22.903Z,1065.00
2023-12-30T01:47:22.972Z,1068.00
2023-12-30T01:48:22.957Z,1072.00
2023-12-30T01:49:22.958Z,1071.00
2023-12-30T01:50:22.970Z,1068.00
2023-12-30T01:51:25.270Z,1058.00
2023-12-30T01:52:23.043Z,1061.00
2023-12-30T01:53:23.034Z,1069.00
2023-12-30T01:54:22.986Z,1068.00
2023-12-30T01:55:23.011Z,1068.00
2023-12-30T01:56:22.953Z,1064.00
2023-12-30T01:57:22.963Z,1068.00
2023-12-30T01:58:22.967Z,1063.00
2023-12-30T01:59:22.939Z,1070.00
2023-12-30T02:00:22.954Z,1071.00
2023-12-30T02:01:23.031Z,1068.00
2023-12-30T02:02:22.913Z,1073.00
2023-12-30T02:03:22.935Z,1059.00
2023-12-30T02:04:22.952Z,1060.00
2023-12-30T02:05:22.925Z,1065.00
2023-12-30T02:06:22.883Z,1053.00
2023-12-30T02:07:22.977Z,1069.00
2023-12-30T02:08:22.861Z,1057.00
2023-12-30T02:09:22.856Z,1055.00
2023-12-30T02:10:22.876Z,1067.00
2023-12-30T02:11:22.833Z,1053.00
2023-12-30T02:12:22.837Z,1050.00
2023-12-30T02:13:22.911Z,1050.00
2023-12-30T02:14:23.654Z,1053.00
2023-12-30T02:15:23.029Z,1045.00
2023-12-30T02:16:22.981Z,1042.00
2023-12-30T02:17:22.961Z,1054.00
2023-12-30T02:18:23.079Z,1056.00
2023-12-30T02:19:23.206Z,1052.00
2023-12-30T02:20:23.051Z,1043.00
2023-12-30T02:21:23.077Z,1041.00
2023-12-30T02:22:23.142Z,1044.00
2023-12-30T02:23:23.166Z,1045.00
2023-12-30T02:57:47.867Z,1047.00
2023-12-30T02:58:23.607Z,1063.00
2023-12-30T02:59:22.595Z,1138.00
2023-12-30T03:00:22.576Z,1244.00
2023-12-30T03:01:22.657Z,1365.00
2023-12-30T03:02:22.574Z,1494.00
2023-12-30T03:03:22.540Z,1486.00
2023-12-30T03:04:22.579Z,1429.00
2023-12-30T03:05:22.654Z,1391.00
2023-12-30T03:06:22.613Z,1348.00
2023-12-30T03:07:22.529Z,1321.00
2023-12-30T03:08:22.467Z,1293.00
2023-12-30T03:09:22.466Z,1255.00
2023-12-30T03:10:22.588Z,1244.00
2023-12-30T03:11:22.456Z,1226.00
2023-12-30T03:12:22.433Z,1210.00
2023-12-30T03:13:22.470Z,1201.00
2023-12-30T03:14:22.438Z,1178.00
2023-12-30T03:15:22.411Z,1150.00
2023-12-30T03:16:22.471Z,1126.00
2023-12-30T03:17:22.445Z,1105.00
2023-12-30T03:18:22.427Z,1065.00
2023-12-30T03:19:22.409Z,1043.00
2023-12-30T03:20:22.364Z,1004.00
2023-12-30T03:21:22.336Z,983.00
2023-12-30T03:22:22.346Z,955.00
2023-12-30T03:23:22.343Z,916.00
2023-12-30T03:24:22.323Z,883.00
2023-12-30T03:25:22.344Z,846.00
2023-12-30T03:26:22.286Z,807.00
2023-12-30T03:27:22.279Z,774.00
2023-12-30T03:28:22.345Z,747.00
2023-12-30T03:29:22.318Z,721.00
2023-12-30T03:30:22.312Z,698.00
2023-12-30T03:31:22.388Z,677.00
2023-12-30T03:32:22.327Z,658.00
2023-12-30T03:33:22.372Z,646.00
2023-12-30T03:34:22.395Z,637.00
2023-12-30T03:35:22.302Z,631.00
2023-12-30T03:36:22.325Z,620.00
2023-12-30T03:37:22.381Z,612.00
2023-12-30T03:38:22.297Z,610.00
2023-12-30T03:39:22.308Z,603.00
2023-12-30T03:40:22.322Z,601.00
2023-12-30T03:41:22.308Z,598.00
2023-12-30T03:42:22.322Z,600.00
2023-12-30T03:43:22.356Z,600.00
2023-12-30T03:44:22.284Z,599.00
2023-12-30T03:45:22.293Z,600.00
2023-12-30T03:46:22.394Z,600.00
2023-12-30T03:47:22.310Z,600.00
2023-12-30T03:48:22.354Z,600.00
2023-12-30T03:49:22.495Z,600.00
2023-12-30T03:50:22.293Z,601.00
2023-12-30T03:51:22.299Z,602.00
2023-12-30T03:52:22.384Z,601.00
2023-12-30T03:53:22.302Z,604.00
2023-12-30T03:54:22.300Z,601.00
2023-12-30T03:55:22.304Z,597.00
2023-12-30T03:56:22.274Z,597.00
2023-12-30T03:57:22.270Z,594.00
2023-12-30T03:58:22.278Z,591.00
2023-12-30T03:59:22.269Z,587.00
2023-12-30T04:00:22.250Z,579.00
2023-12-30T04:01:22.285Z,579.00
2023-12-30T04:02:22.382Z,589.00
2023-12-30T04:03:22.323Z,602.00
2023-12-30T04:04:22.353Z,600.00
2023-12-30T04:05:22.221Z,600.00
2023-12-30T04:06:22.202Z,596.00
2023-12-30T04:07:22.245Z,599.00
2023-12-30T04:08:22.199Z,592.00
2023-12-30T04:09:22.212Z,594.00
2023-12-30T04:10:22.227Z,593.00
2023-12-30T04:11:22.217Z,600.00
2023-12-30T04:12:22.182Z,610.00
2023-12-30T04:13:22.224Z,607.00
2023-12-30T04:14:22.176Z,605.00
2023-12-30T04:15:22.166Z,600.00
2023-12-30T04:16:22.195Z,599.00
2023-12-30T04:17:22.201Z,596.00
2023-12-30T04:18:22.233Z,592.00
2023-12-30T04:19:22.267Z,602.00
2023-12-30T04:20:22.150Z,600.00
2023-12-30T04:21:22.129Z,602.00
2023-12-30T04:22:22.169Z,605.00
2023-12-30T04:23:22.119Z,604.00
2023-12-30T04:24:22.112Z,605.00
2023-12-30T04:25:22.097Z,599.00
2023-12-30T04:26:22.093Z,601.00
2023-12-30T04:27:22.102Z,604.00
2023-12-30T04:28:22.106Z,607.00
2023-12-30T04:29:22.086Z,605.00
2023-12-30T04:30:22.124Z,600.00
2023-12-30T04:31:22.087Z,599.00
2023-12-30T04:32:22.105Z,604.00
2023-12-30T04:33:22.071Z,603.00
2023-12-30T04:34:22.086Z,602.00
2023-12-30T04:35:22.022Z,601.00
2023-12-30T04:36:22.019Z,604.00
2023-12-30T04:37:22.083Z,605.00
2023-12-30T04:38:22.049Z,601.00
2023-12-30T04:39:22.080Z,602.00
2023-12-30T04:40:29.637Z,600.00
2023-12-30T04:41:29.406Z,600.00
2023-12-30T04:42:29.447Z,600.00
2023-12-30T04:43:29.485Z,600.00
2023-12-30T04:44:29.527Z,600.00
2023-12-30T04:45:29.530Z,600.00
2023-12-30T04:46:29.640Z,600.00
2023-12-30T04:47:29.621Z,600.00
2023-12-30T04:48:29.692Z,600.00
2023-12-30T04:49:29.721Z,602.00
2023-12-30T04:50:29.674Z,601.00
2023-12-30T04:51:29.709Z,598.00
2023-12-30T04:52:29.796Z,597.00
2023-12-30T04:53:29.790Z,596.00
2023-12-30T04:54:31.935Z,597.00
2023-12-30T04:55:29.943Z,603.00
2023-12-30T04:56:29.834Z,603.00
2023-12-30T04:57:29.848Z,604.00
2023-12-30T04:58:29.888Z,604.00
2023-12-30T04:59:33.022Z,602.00
2023-12-30T05:00:29.940Z,601.00
2023-12-30T05:01:30.017Z,606.00
2023-12-30T05:02:29.985Z,604.00
2023-12-30T05:03:30.083Z,603.00
2023-12-30T05:04:30.709Z,600.00
2023-12-30T05:05:30.089Z,596.00
2023-12-30T05:06:30.082Z,596.00
2023-12-30T05:07:30.205Z,604.00
2023-12-30T05:08:30.134Z,598.00
2023-12-30T05:09:30.152Z,600.00
2023-12-30T05:10:30.196Z,599.00
2023-12-30T05:11:30.214Z,604.00
2023-12-30T05:12:30.244Z,603.00
2023-12-30T05:13:30.321Z,604.00
2023-12-30T05:14:30.317Z,607.00
2023-12-30T05:15:30.416Z,601.00
2023-12-30T05:16:30.569Z,600.00
2023-12-30T05:17:30.601Z,604.00
2023-12-30T05:18:30.656Z,606.00
2023-12-30T05:19:30.688Z,605.00
2023-12-30T05:20:30.713Z,604.00
2023-12-30T05:21:30.780Z,605.00
2023-12-30T05:22:30.910Z,604.00
2023-12-30T05:23:30.922Z,606.00
2023-12-30T05:24:30.984Z,601.00
2023-12-30T05:25:31.087Z,604.00
2023-12-30T05:26:31.131Z,608.00
2023-12-30T05:27:31.193Z,607.00
2023-12-30T05:28:31.307Z,601.00
2023-12-30T05:29:31.333Z,607.00
2023-12-30T05:30:31.464Z,603.00
2023-12-30T05:31:31.491Z,605.00
2023-12-30T05:32:31.573Z,603.00
2023-12-30T05:33:31.714Z,602.00
2023-12-30T05:34:31.759Z,605.00
2023-12-30T05:35:31.729Z,606.00
2023-12-30T05:36:31.818Z,607.00
2023-12-30T05:37:32.025Z,605.00
2023-12-30T05:38:31.944Z,609.00
2023-12-30T05:39:32.039Z,609.00
2023-12-30T05:40:32.045Z,609.00
2023-12-30T05:41:32.061Z,609.00
2023-12-30T05:42:32.080Z,610.00
2023-12-30T05:43:32.156Z,611.00
2023-12-30T05:44:32.140Z,613.00
2023-12-30T05:45:32.153Z,611.00
2023-12-30T05:46:32.324Z,611.00
2023-12-30T05:47:32.226Z,612.00
2023-12-30T05:48:32.332Z,612.00
2023-12-30T05:49:32.345Z,617.00
2023-12-30T05:50:32.290Z,620.00
2023-12-30T05:51:32.335Z,625.00
2023-12-30T05:52:32.422Z,626.00
2023-12-30T05:53:32.373Z,628.00
2023-12-30T05:54:32.412Z,628.00
2023-12-30T05:55:32.533Z,631.00
2023-12-30T05:56:32.493Z,630.00
2023-12-30T05:57:34.637Z,630.00
2023-12-30T05:58:32.678Z,627.00
2023-12-30T05:59:32.615Z,630.00
2023-12-30T06:00:32.671Z,635.00
2023-12-30T06:01:32.777Z,630.00
2023-12-30T06:02:32.689Z,631.00
2023-12-30T06:03:32.730Z,627.00
2023-12-30T06:04:32.823Z,629.00
2023-12-30T06:05:32.787Z,631.00
2023-12-30T06:06:33.222Z,630.00
2023-12-30T06:07:32.913Z,631.00
2023-12-30T06:08:32.872Z,627.00
2023-12-30T06:09:32.906Z,629.00
2023-12-30T06:10:32.976Z,627.00
2023-12-30T06:11:32.963Z,627.00
2023-12-30T06:12:32.978Z,629.00
2023-12-30T06:13:33.040Z,635.00
2023-12-30T06:14:33.097Z,634.00
2023-12-30T06:15:33.058Z,632.00
2023-12-30T06:16:33.093Z,633.00
2023-12-30T06:17:33.198Z,637.00
2023-12-30T06:18:33.638Z,634.00
2023-12-30T06:19:33.182Z,638.00
2023-12-30T06:20:33.242Z,639.00
2023-12-30T06:21:33.243Z,640.00
2023-12-30T06:22:33.352Z,641.00
2023-12-30T06:23:33.324Z,641.00
2023-12-30T06:24:33.358Z,642.00
2023-12-30T06:25:33.381Z,646.00
2023-12-30T06:26:33.412Z,649.00
2023-12-30T06:27:33.436Z,649.00
2023-12-30T06:28:33.554Z,649.00
2023-12-30T06:29:35.327Z,650.00
2023-12-30T06:30:33.566Z,648.00
2023-12-30T06:31:33.596Z,645.00
2023-12-30T06:32:33.707Z,645.00
2023-12-30T06:33:33.816Z,644.00
2023-12-30T06:34:34.150Z,646.00
2023-12-30T06:35:33.868Z,645.00
2023-12-30T06:36:33.935Z,641.00
2023-12-30T06:37:34.082Z,641.00
2023-12-30T06:38:33.997Z,642.00
2023-12-30T06:39:34.030Z,641.00
2023-12-30T06:40:34.196Z,642.00
2023-12-30T06:41:34.089Z,640.00
2023-12-30T06:42:34.147Z,641.00
2023-12-30T06:43:34.232Z,642.00
2023-12-30T06:44:34.260Z,643.00
2023-12-30T06:45:34.221Z,645.00
2023-12-30T06:46:34.304Z,642.00
2023-12-30T06:47:34.299Z,648.00
2023-12-30T06:48:34.355Z,646.00
2023-12-30T06:49:34.354Z,649.00
2023-12-30T06:50:34.359Z,648.00
2023-12-30T06:51:34.385Z,649.00
2023-12-30T06:52:34.460Z,649.00
2023-12-30T06:53:34.454Z,649.00
2023-12-30T06:54:34.477Z,650.00
2023-12-30T06:55:38.924Z,651.00
2023-12-30T06:56:35.552Z,649.00
2023-12-30T06:57:34.572Z,650.00
2023-12-30T06:58:34.673Z,652.00
2023-12-30T06:59:34.635Z,653.00
2023-12-30T07:00:34.671Z,656.00
2023-12-30T07:01:34.729Z,661.00
2023-12-30T07:02:34.727Z,658.00
2023-12-30T07:03:34.857Z,660.00
2023-12-30T07:04:34.854Z,664.00
2023-12-30T07:05:34.896Z,664.00
2023-12-30T07:06:34.844Z,661.00
2023-12-30T07:07:35.025Z,657.00
2023-12-30T07:08:34.918Z,663.00
2023-12-30T07:09:34.962Z,662.00
2023-12-30T07:10:35.011Z,663.00
2023-12-30T07:11:34.998Z,668.00
2023-12-30T07:12:35.037Z,673.00
2023-12-30T07:13:35.179Z,666.00
2023-12-30T07:14:35.141Z,676.00
2023-12-30T07:15:35.141Z,673.00
2023-12-30T07:16:35.202Z,679.00
2023-12-30T07:17:35.217Z,665.00
2023-12-30T07:18:35.245Z,666.00
2023-12-30T07:19:35.274Z,668.00
2023-12-30T07:20:35.309Z,670.00
2023-12-30T07:21:35.315Z,682.00
2023-12-30T07:22:35.371Z,701.00
2023-12-30T07:23:35.380Z,703.00
2023-12-30T07:24:35.407Z,708.00
2023-12-30T07:25:35.579Z,714.00
2023-12-30T07:26:35.477Z,724.00
2023-12-30T07:27:35.516Z,735.00
2023-12-30T07:28:35.597Z,742.00
2023-12-30T07:29:35.566Z,737.00
2023-12-30T07:30:35.658Z,743.00
2023-12-30T07:31:35.762Z,752.00
2023-12-30T07:32:35.760Z,756.00
2023-12-30T07:33:35.765Z,749.00
2023-12-30T07:34:35.817Z,771.00
2023-12-30T07:35:35.734Z,771.00
2023-12-30T07:36:35.776Z,771.00
2023-12-30T07:37:35.900Z,771.00
2023-12-30T07:38:35.887Z,775.00
2023-12-30T07:39:35.853Z,780.00
2023-12-30T07:40:36.015Z,798.00
2023-12-30T07:41:35.936Z,811.00
2023-12-30T07:42:35.962Z,828.00
2023-12-30T07:43:36.029Z,837.00
2023-12-30T07:44:36.038Z,833.00
2023-12-30T07:45:36.089Z,834.00
2023-12-30T07:46:36.154Z,831.00
2023-12-30T07:47:36.165Z,831.00
2023-12-30T07:48:36.270Z,831.00
2023-12-30T07:49:36.328Z,835.00
2023-12-30T07:50:36.240Z,831.00
2023-12-30T07:51:36.283Z,833.00
2023-12-30T07:52:36.350Z,836.00
2023-12-30T07:53:36.374Z,831.00
2023-12-30T07:54:36.390Z,833.00
2023-12-30T07:55:36.474Z,831.00
2023-12-30T07:56:36.447Z,835.00
2023-12-30T07:57:36.472Z,837.00
2023-12-30T07:58:36.553Z,836.00
2023-12-30T07:59:36.553Z,844.00
2023-12-30T08:00:36.606Z,843.00
2023-12-30T08:01:36.629Z,841.00
2023-12-30T08:02:36.672Z,826.00
2023-12-30T08:03:36.683Z,834.00
2023-12-30T08:04:36.779Z,833.00
2023-12-30T08:05:36.751Z,827.00
2023-12-30T08:06:36.766Z,824.00
2023-12-30T08:07:36.876Z,832.00
2023-12-30T08:08:36.843Z,820.00
2023-12-30T08:09:36.843Z,825.00
2023-12-30T08:10:36.910Z,836.00
2023-12-30T08:11:49.774Z,838.00
2023-12-30T08:12:38.149Z,838.00
2023-12-30T08:13:37.012Z,840.00
2023-12-30T08:14:37.027Z,846.00
2023-12-30T08:15:37.085Z,850.00
2023-12-30T08:16:37.142Z,860.00
2023-12-30T08:17:37.317Z,858.00
2023-12-30T08:18:37.270Z,856.00
2023-12-30T08:19:37.176Z,854.00
2023-12-30T08:20:37.182Z,845.00
2023-12-30T08:21:37.237Z,839.00
2023-12-30T08:22:37.317Z,834.00
2023-12-30T08:23:37.279Z,821.00
2023-12-30T08:24:37.331Z,830.00
2023-12-30T08:25:37.403Z,812.00
2023-12-30T08:26:37.390Z,813.00
2023-12-30T08:27:37.400Z,810.00
2023-12-30T08:28:37.563Z,803.00
2023-12-30T08:29:37.462Z,810.00
2023-12-30T08:30:37.536Z,801.00
2023-12-30T08:31:37.548Z,801.00
2023-12-30T08:32:37.563Z,787.00
2023-12-30T08:33:37.593Z,787.00
2023-12-30T08:34:37.609Z,788.00
2023-12-30T08:35:37.619Z,790.00
2023-12-30T08:36:37.691Z,794.00
2023-12-30T08:37:37.907Z,805.00
2023-12-30T08:38:37.676Z,791.00
2023-12-30T08:39:37.723Z,810.00
2023-12-30T08:40:37.884Z,801.00
2023-12-30T08:41:37.752Z,803.00
2023-12-30T08:42:37.785Z,809.00
2023-12-30T08:43:37.841Z,797.00
2023-12-30T08:44:37.832Z,794.00
2023-12-30T08:45:37.872Z,795.00
2023-12-30T08:46:38.096Z,790.00
2023-12-30T08:47:37.939Z,809.00
2023-12-30T08:48:38.112Z,807.00
2023-12-30T08:49:37.974Z,810.00
2023-12-30T08:50:38.017Z,796.00
2023-12-30T08:51:38.003Z,811.00
2023-12-30T08:52:38.094Z,803.00
2023-12-30T08:53:38.101Z,804.00
2023-12-30T08:54:38.091Z,786.00
2023-12-30T08:55:38.154Z,771.00
2023-12-30T08:56:38.160Z,718.00
2023-12-30T08:57:38.171Z,713.00
2023-12-30T08:58:38.244Z,695.00
2023-12-30T08:59:38.195Z,710.00
2023-12-30T09:00:38.227Z,726.00
2023-12-30T09:01:38.243Z,726.00
2023-12-30T09:02:38.245Z,728.00
2023-12-30T09:03:38.301Z,736.00
2023-12-30T09:04:38.279Z,741.00
2023-12-30T09:05:38.354Z,754.00
2023-12-30T09:06:38.275Z,761.00
2023-12-30T09:07:38.335Z,772.00
2023-12-30T09:08:38.242Z,771.00
2023-12-30T09:09:38.280Z,792.00
2023-12-30T09:10:38.486Z,798.00
2023-12-30T09:11:38.420Z,799.00
2023-12-30T09:12:38.429Z,799.00
2023-12-30T09:13:38.524Z,800.00
2023-12-30T09:14:38.442Z,805.00
2023-12-30T09:15:38.460Z,815.00
2023-12-30T09:16:38.645Z,840.00
2023-12-30T09:17:38.534Z,800.00
2023-12-30T09:18:38.561Z,808.00
2023-12-30T09:19:38.673Z,817.00
2023-12-30T09:20:38.480Z,838.00
2023-12-30T09:21:38.488Z,873.00
2023-12-30T09:22:38.514Z,886.00
2023-12-30T09:23:38.473Z,892.00
2023-12-30T09:24:38.499Z,869.00
2023-12-30T09:25:38.602Z,888.00
2023-12-30T09:26:38.476Z,906.00
2023-12-30T09:27:38.483Z,924.00
2023-12-30T09:28:38.570Z,938.00
2023-12-30T09:29:38.479Z,956.00
2023-12-30T09:30:38.496Z,983.00
2023-12-30T09:31:38.496Z,999.00
2023-12-30T09:32:38.492Z,1028.00
2023-12-30T09:33:38.592Z,1038.00
2023-12-30T09:34:42.125Z,1055.00
2023-12-30T09:35:39.494Z,1055.00
2023-12-30T09:36:38.426Z,1060.00
2023-12-30T09:37:38.494Z,1071.00
2023-12-30T09:38:38.422Z,1100.00
2023-12-30T09:39:38.409Z,1145.00
2023-12-30T09:40:38.518Z,1159.00
2023-12-30T09:41:38.387Z,1172.00
2023-12-30T09:42:38.385Z,1191.00
2023-12-30T09:43:38.394Z,1204.00
2023-12-30T09:44:38.374Z,1211.00
2023-12-30T09:45:38.368Z,1221.00
2023-12-30T09:46:38.369Z,1213.00
2023-12-30T09:47:38.395Z,1229.00
2023-12-30T09:48:38.439Z,1229.00
2023-12-30T09:49:38.436Z,1233.00
2023-12-30T09:50:38.361Z,1246.00
2023-12-30T09:51:38.316Z,1269.00
2023-12-30T09:52:38.358Z,1300.00
2023-12-30T09:53:38.291Z,1313.00
2023-12-30T09:54:45.718Z,1321.00
2023-12-30T09:55:39.467Z,1321.00
2023-12-30T09:56:38.283Z,1322.00
2023-12-30T09:57:38.269Z,1327.00
2023-12-30T09:58:38.345Z,1332.00
2023-12-30T09:59:38.284Z,1353.00
2023-12-30T10:00:38.286Z,1322.00
2023-12-30T10:01:40.828Z,1327.00
2023-12-30T10:02:38.275Z,1336.00
2023-12-30T10:03:38.308Z,1349.00
2023-12-30T10:04:38.334Z,1370.00
2023-12-30T10:05:38.395Z,1376.00
2023-12-30T10:06:38.294Z,1370.00
2023-12-30T10:07:38.375Z,1382.00
2023-12-30T10:08:38.313Z,1385.00
2023-12-30T10:09:38.328Z,1377.00
2023-12-30T10:10:38.424Z,1385.00
2023-12-30T10:11:38.314Z,1396.00
2023-12-30T10:12:38.307Z,1382.00
2023-12-30T10:13:38.375Z,1390.00
2023-12-30T10:14:38.341Z,1388.00
2023-12-30T10:15:38.343Z,1390.00
2023-12-30T10:16:38.442Z,1382.00
2023-12-30T10:17:38.417Z,1373.00
2023-12-30T10:18:38.417Z,1378.00
2023-12-30T10:19:38.393Z,1370.00
2023-12-30T10:20:38.319Z,1377.00
2023-12-30T10:21:38.421Z,1382.00
2023-12-30T10:22:38.413Z,1366.00
2023-12-30T10:23:38.350Z,1368.00
2023-12-30T10:24:38.366Z,1356.00
2023-12-30T10:25:38.504Z,1361.00
2023-12-30T10:26:38.362Z,1359.00
2023-12-30T10:27:38.343Z,1360.00
2023-12-30T10:28:38.410Z,1363.00
2023-12-30T10:29:46.907Z,1349.00
2023-12-30T10:30:39.388Z,1349.00
2023-12-30T10:31:38.366Z,1350.00
2023-12-30T10:32:38.424Z,1350.00
2023-12-30T10:33:38.415Z,1350.00
2023-12-30T10:34:38.359Z,1354.00
2023-12-30T10:35:38.412Z,1358.00
2023-12-30T10:36:38.331Z,1361.00
2023-12-30T10:37:38.383Z,1356.00
2023-12-30T10:38:38.346Z,1359.00
2023-12-30T10:39:38.334Z,1357.00
2023-12-30T10:40:38.368Z,1350.00
2023-12-30T10:41:38.341Z,1349.00
2023-12-30T10:42:38.332Z,1349.00
2023-12-30T10:43:38.430Z,1349.00
2023-12-30T10:44:38.337Z,1349.00
2023-12-30T10:45:38.494Z,1356.00
2023-12-30T10:46:38.471Z,1350.00
2023-12-30T10:47:38.366Z,1354.00
2023-12-30T10:48:38.320Z,1349.00
2023-12-30T10:49:38.423Z,1336.00
2023-12-30T10:50:38.360Z,1344.00
2023-12-30T10:51:38.349Z,1337.00
2023-12-30T10:52:38.470Z,1341.00
2023-12-30T10:53:38.331Z,1328.00
2023-12-30T10:54:38.346Z,1331.00
2023-12-30T10:55:38.370Z,1337.00
2023-12-30T10:56:38.339Z,1332.00
2023-12-30T10:57:38.440Z,1333.00
2023-12-30T10:58:38.492Z,1333.00
2023-12-30T10:59:38.439Z,1333.00
2023-12-30T11:00:38.351Z,1334.00
2023-12-30T11:01:38.353Z,1333.00
2023-12-30T11:02:38.317Z,1333.00
2023-12-30T11:03:38.324Z,1332.00
2023-12-30T11:04:38.346Z,1336.00
2023-12-30T11:05:38.403Z,1341.00
2023-12-30T11:06:38.379Z,1333.00
2023-12-30T11:07:38.438Z,1335.00
2023-12-30T11:08:38.293Z,1334.00
2023-12-30T11:09:38.335Z,1336.00
2023-12-30T11:10:38.352Z,1335.00
2023-12-30T11:11:38.294Z,1333.00
2023-12-30T11:12:38.386Z,1334.00
2023-12-30T11:13:38.331Z,1335.00
2023-12-30T11:14:38.314Z,1333.00
2023-12-30T11:15:38.278Z,1336.00
2023-12-30T11:16:38.304Z,1326.00
2023-12-30T11:17:38.306Z,1337.00
2023-12-30T11:18:38.350Z,1333.00
2023-12-30T11:19:38.417Z,1335.00
2023-12-30T11:20:38.320Z,1338.00
2023-12-30T11:21:38.271Z,1343.00
2023-12-30T11:22:38.331Z,1347.00
2023-12-30T11:23:38.276Z,1342.00
2023-12-30T11:24:38.262Z,1344.00
2023-12-30T11:25:38.295Z,1332.00
2023-12-30T11:26:38.935Z,1337.00
2023-12-30T11:27:38.287Z,1334.00
2023-12-30T11:28:38.375Z,1338.00
2023-12-30T11:29:38.233Z,1342.00
2023-12-30T11:30:38.264Z,1330.00
2023-12-30T11:31:38.269Z,1330.00
2023-12-30T11:32:38.360Z,1331.00
2023-12-30T11:33:38.291Z,1332.00
2023-12-30T11:34:38.224Z,1333.00
2023-12-30T11:35:38.206Z,1348.00
2023-12-30T11:36:38.194Z,1341.00
2023-12-30T11:37:38.254Z,1346.00
2023-12-30T11:38:38.180Z,1341.00
2023-12-30T11:39:38.186Z,1340.00
2023-12-30T11:40:38.201Z,1334.00
2023-12-30T11:41:38.189Z,1344.00
2023-12-30T11:42:45.595Z,1343.00
2023-12-30T11:43:39.255Z,1341.00
2023-12-30T11:44:38.196Z,1341.00
2023-12-30T11:45:38.169Z,1340.00
2023-12-30T11:46:38.450Z,1338.00
2023-12-30T11:47:38.208Z,1328.00
2023-12-30T11:48:38.170Z,1341.00
2023-12-30T11:49:38.170Z,1342.00
2023-12-30T11:50:38.148Z,1342.00
2023-12-30T11:51:38.153Z,1345.00
2023-12-30T11:52:38.275Z,1345.00
2023-12-30T11:53:38.137Z,1345.00
2023-12-30T11:54:38.160Z,1342.00
2023-12-30T11:55:38.141Z,1338.00
2023-12-30T11:56:38.123Z,1344.00
2023-12-30T11:57:38.099Z,1344.00
2023-12-30T11:58:38.235Z,1334.00
2023-12-30T11:59:38.217Z,1332.00
2023-12-30T12:00:38.270Z,1332.00
2023-12-30T12:01:38.278Z,1334.00
2023-12-30T12:02:38.138Z,1328.00
2023-12-30T12:03:38.202Z,1342.00
2023-12-30T12:04:38.318Z,1342.00
2023-12-30T12:05:38.156Z,1340.00
2023-12-30T12:06:38.139Z,1332.00
2023-12-30T12:07:38.251Z,1323.00
2023-12-30T12:08:38.075Z,1344.00
2023-12-30T12:09:38.082Z,1330.00
2023-12-30T12:10:38.112Z,1330.00
2023-12-30T12:11:38.066Z,1332.00
2023-12-30T12:12:38.055Z,1329.00
2023-12-30T12:13:38.083Z,1335.00
2023-12-30T12:14:38.091Z,1333.00
2023-12-30T12:15:38.151Z,1331.00
2023-12-30T12:16:38.359Z,1329.00
2023-12-30T12:17:38.324Z,1335.00
2023-12-30T12:18:38.250Z,1326.00
2023-12-30T12:19:38.402Z,1322.00
2023-12-30T12:20:38.258Z,1323.00
2023-12-30T12:21:38.288Z,1321.00
2023-12-30T12:22:38.383Z,1327.00
2023-12-30T12:23:38.335Z,1323.00
2023-12-30T12:24:38.357Z,1327.00
2023-12-30T12:25:38.391Z,1329.00
2023-12-30T12:26:38.388Z,1330.00
2023-12-30T12:27:38.414Z,1327.00
2023-12-30T12:28:38.517Z,1324.00
2023-12-30T12:29:38.454Z,1313.00
2023-12-30T12:30:38.500Z,1320.00
2023-12-30T12:31:38.543Z,1314.00
2023-12-30T12:32:38.624Z,1322.00
2023-12-30T12:33:38.549Z,1319.00
2023-12-30T12:34:38.614Z,1319.00
2023-12-30T12:35:38.522Z,1316.00
2023-12-30T12:36:38.478Z,1319.00
2023-12-30T12:37:38.517Z,1321.00
2023-12-30T12:38:38.544Z,1320.00
2023-12-30T12:39:38.882Z,1314.00
2023-12-30T12:40:38.462Z,1320.00
2023-12-30T12:41:38.471Z,1331.00
2023-12-30T12:42:38.392Z,1318.00
2023-12-30T12:43:38.437Z,1321.00
2023-12-30T12:44:48.110Z,1314.00
2023-12-30T12:45:38.350Z,1315.00
2023-12-30T12:46:38.377Z,1317.00
2023-12-30T12:47:39.163Z,1318.00
2023-12-30T12:48:38.360Z,1328.00
2023-12-30T12:49:38.309Z,1323.00
2023-12-30T12:50:38.285Z,1321.00